Data for 11/22/2006

Time Sea-Level Adjusted Pressure Absolute Pressure Temperature Relative Humidity Dew Point   
(mb) (inHg) (mb) (inHg) (C) (F) (%) (C) (F)
00:05 1011 29.85 840 24.81 9.4 48.9 31 -6.8 19.7
00:10 1011 29.85 840 24.81 8.8 47.9 34 -6 21.2
00:15 1011 29.85 840 24.81 8.1 46.6 36 -5.9 21.3
00:20 1011 29.85 840 24.81 7.7 45.9 39 -5.5 22.1
00:25 1011 29.85 840 24.81 7.6 45.7 39 -5.5 22.2
00:30 1011 29.85 840 24.81 7.5 45.4 40 -5.2 22.6
00:35 1011 29.85 840 24.81 7.3 45.1 41 -5.2 22.6
00:40 1011 29.85 840 24.81 7.2 45 41 -5.2 22.7
00:45 1011 29.85 840 24.81 7.1 44.8 42 -5 23
00:50 1011 29.85 840 24.81 6.9 44.5 42 -5 23
00:55 1011 29.85 840 24.81 6.9 44.4 42 -5 23
01:00 1011 29.85 840 24.81 6.9 44.4 42 -5 23
01:05 1011 29.85 840 24.81 6.7 44.1 43 -5 22.9
01:10 1011 29.85 840 24.81 6.8 44.2 43 -5 23
01:15 1011 29.85 840 24.81 6.8 44.2 43 -4.9 23.1
01:20 1011 29.85 840 24.81 6.7 44 43 -4.9 23.2
01:25 1011 29.85 840 24.81 6.7 44 44 -4.8 23.3
01:30 1011 29.85 840 24.81 6.8 44.3 43 -4.8 23.4
01:35 1011 29.85 840 24.81 6.8 44.3 43 -4.8 23.4
01:40 1011 29.85 840 24.81 7.1 44.7 43 -4.8 23.4
01:45 1011 29.85 840 24.81 7.2 44.9 43 -4.4 24
01:50 1011 29.85 841 24.83 7.1 44.7 44 -4.3 24.2
01:55 1011 29.85 840 24.81 7 44.5 45 -4.2 24.4
02:00 1011 29.85 841 24.83 7.2 44.9 44 -4.2 24.4
02:05 1011 29.85 841 24.83 7.4 45.4 43 -4.2 24.4
02:10 1012 29.88 841 24.83 7.6 45.7 43 -4.3 24.3
02:15 1012 29.88 841 24.83 7.7 45.9 44 -3.6 25.5
02:20 1012 29.88 841 24.83 6.8 44.3 52 -2.2 28
02:25 1012 29.88 841 24.83 5.9 42.5 57 -2 28.3
02:30 1012 29.88 841 24.83 5.1 41.1 62 -1.7 29
02:35 1012 29.88 842 24.86 4.4 39.9 65 -1.7 28.9
02:40 1013 29.91 842 24.86 4 39.2 66 -1.8 28.8
02:45 1013 29.91 842 24.86 3.7 38.7 68 -1.7 28.9
02:50 1013 29.91 842 24.86 3.5 38.3 68 -1.8 28.8
02:55 1013 29.91 842 24.86 3.3 38 69 -1.9 28.6
03:00 1013 29.91 842 24.86 3.1 37.5 70 -1.9 28.7
03:05 1013 29.91 842 24.86 2.9 37.1 71 -1.9 28.5
03:10 1013 29.91 843 24.89 2.5 36.5 73 -1.9 28.6
03:15 1013 29.91 843 24.89 3 37.5 67 -2.6 27.3
03:20 1014 29.94 843 24.89 3 37.4 69 -2.2 28
03:25 1014 29.94 843 24.89 2.5 36.5 70 -2.4 27.8
03:30 1015 29.97 844 24.92 2.1 35.8 72 -2.4 27.6
03:35 1015 29.97 844 24.92 1.1 33.9 78 -2.4 27.7
03:40 1015 29.97 844 24.92 0.7 33.3 77 -2.8 26.9
03:45 1015 29.97 844 24.92 1 33.8 73 -3.4 25.9
03:50 1015 29.97 845 24.95 1.3 34.4 73 -3.1 26.5
03:55 1016 30 845 24.95 0.8 33.4 77 -2.9 26.8
04:00 1016 30 845 24.95 0.1 32.1 79 -3.2 26.2
04:05 1016 30 845 24.95 0.2 32.3 77 -3.5 25.7
04:10 1016 30 845 24.95 0.2 32.3 78 -3.1 26.4
04:15 1016 30 845 24.95 -0.2 31.6 80 -3.2 26.2
04:20 1016 30 845 24.95 -0.4 31.3 80 -3.4 25.9
04:25 1016 30 845 24.95 -0.1 31.9 78 -3.4 25.8
04:30 1016 30 845 24.95 -0.1 31.7 80 -3.3 26.1
04:35 1016 30 845 24.95 -0.1 31.9 79 -3.4 26
04:40 1016 30 845 24.95 0 32 78 -3.4 25.9
04:45 1016 30 846 24.98 0.3 32.5 77 -3.3 26.1
04:50 1016 30 846 24.98 0.4 32.7 77 -3.1 26.3
04:55 1016 30 846 24.98 0.4 32.7 78 -3 26.5
05:00 1017 30.03 846 24.98 0.4 32.7 78 -3 26.6
05:05 1017 30.03 846 24.98 0.3 32.6 78 -3 26.6
05:10 1017 30.03 846 24.98 0.4 32.7 78 -3 26.6
05:15 1017 30.03 846 24.98 0.3 32.5 79 -2.9 26.7
05:20 1017 30.03 846 24.98 0.2 32.4 79 -2.9 26.8
05:25 1017 30.03 846 24.98 0.2 32.4 80 -2.9 26.8
05:30 1017 30.03 846 24.98 0.2 32.4 80 -2.9 26.8
05:35 1017 30.03 846 24.98 0.2 32.4 80 -2.8 26.9
05:40 1017 30.03 846 24.98 0 32 82 -2.8 27
05:45 1017 30.03 846 24.98 -0.1 31.9 82 -2.8 27
05:50 1017 30.03 846 24.98 0 32 81 -2.9 26.9
05:55 1017 30.03 846 24.98 0.1 32.2 81 -2.8 26.9
06:00 1017 30.03 847 25.01 0.2 32.4 78 -3.1 26.5
06:05 1017 30.03 847 25.01 0.7 33.2 77 -2.9 26.8
06:10 1018 30.06 847 25.01 0.8 33.4 78 -2.7 27.2
06:15 1018 30.06 847 25.01 0.7 33.2 78 -2.8 26.9
06:20 1018 30.06 847 25.01 0.7 33.2 77 -2.9 26.8
06:25 1018 30.06 847 25.01 0.8 33.5 77 -2.8 26.9
06:30 1018 30.06 847 25.01 0.9 33.5 77 -2.8 27
06:35 1018 30.06 847 25.01 0.8 33.5 77 -2.7 27.1
06:40 1018 30.06 847 25.01 0.9 33.7 75 -3 26.6
06:45 1018 30.06 847 25.01 1 33.8 75 -2.9 26.7
06:50 1018 30.06 847 25.01 1 33.8 76 -2.8 26.9
06:55 1018 30.06 847 25.01 0.9 33.6 77 -2.7 27.1
07:00 1018 30.06 847 25.01 0.7 33.3 77 -2.8 26.9
07:05 1018 30.06 847 25.01 1 33.7 75 -3 26.6
07:10 1018 30.06 847 25.01 1.1 33.9 75 -2.9 26.8
07:15 1018 30.06 847 25.01 1.2 34.2 74 -3 26.7
07:20 1018 30.06 847 25.01 1.4 34.5 73 -3 26.6
07:25 1018 30.06 847 25.01 1.3 34.4 74 -2.8 26.9
07:30 1018 30.06 847 25.01 1.2 34.1 74 -3 26.6
07:35 1018 30.06 847 25.01 1.1 34.1 74 -3 26.6
07:40 1018 30.06 847 25.01 1.3 34.3 73 -3 26.6
07:45 1018 30.06 847 25.01 1.4 34.5 72 -3.1 26.5
07:50 1018 30.06 847 25.01 1.4 34.6 73 -2.9 26.7
07:55 1018 30.06 847 25.01 1.5 34.7 72 -3 26.7
08:00 1018 30.06 847 25.01 1.7 35.1 71 -3 26.6
08:05 1018 30.06 847 25.01 1.7 35 71 -3 26.5
08:10 1018 30.06 847 25.01 1.8 35.3 70 -3.1 26.4
08:15 1018 30.06 847 25.01 1.9 35.4 70 -3.1 26.5
08:20 1018 30.06 847 25.01 2 35.6 69 -3 26.6
08:25 1018 30.06 847 25.01 2.2 36 68 -3.1 26.4
08:30 1018 30.06 847 25.01 2.7 36.9 66 -3.1 26.5
08:35 1018 30.06 847 25.01 3.1 37.5 63 -3.2 26.2
08:40 1018 30.06 847 25.01 3.3 37.9 64 -2.8 26.9
08:45 1018 30.06 847 25.01 3.7 38.7 62 -2.8 26.9
08:50 1018 30.06 847 25.01 4.2 39.5 60 -3 26.6
08:55 1018 30.06 847 25.01 4.5 40.1 59 -2.9 26.8
09:00 1018 30.06 847 25.01 5.2 41.4 56 -2.8 27
09:05 1018 30.06 847 25.01 5.3 41.6 57 -2.5 27.5
09:10 1018 30.06 847 25.01 5.6 42 56 -2.4 27.6
09:15 1018 30.06 847 25.01 5.2 41.4 58 -2.5 27.6
09:20 1018 30.06 847 25.01 4.9 40.9 59 -2.5 27.6
09:25 1018 30.06 847 25.01 5 41 58 -2.7 27.2
09:30 1018 30.06 847 25.01 5 41 58 -2.6 27.3
09:35 1018 30.06 847 25.01 4.9 40.8 58 -2.6 27.3
09:40 1018 30.06 847 25.01 5.2 41.4 56 -2.9 26.8
09:45 1018 30.06 847 25.01 5.3 41.5 56 -2.7 27.1
09:50 1018 30.06 847 25.01 5.6 42.1 53 -3.1 26.3
09:55 1018 30.06 847 25.01 6.3 43.4 50 -3.3 26.1
10:00 1018 30.06 847 25.01 6 42.7 53 -2.9 26.7
10:05 1018 30.06 847 25.01 5.3 41.5 53 -3.4 25.9
10:10 1018 30.06 847 25.01 5.8 42.4 51 -3.6 25.6
10:15 1018 30.06 847 25.01 5.9 42.6 51 -3.4 25.9
10:20 1018 30.06 847 25.01 6.1 42.9 49 -3.8 25.2
10:25 1018 30.06 847 25.01 6.5 43.6 48 -3.8 25.2
10:30 1018 30.06 847 25.01 6.8 44.2 48 -3.4 25.9
10:35 1018 30.06 847 25.01 7.2 45 46 -3.7 25.3
10:40 1018 30.06 847 25.01 6.6 43.9 49 -3.4 26
10:45 1018 30.06 847 25.01 7 44.5 47 -3.5 25.7
10:50 1018 30.06 847 25.01 7.4 45.3 45 -3.7 25.4
10:55 1018 30.06 847 25.01 7.5 45.4 46 -3.5 25.8
11:00 1018 30.06 847 25.01 7.4 45.3 47 -3.3 26.1
11:05 1018 30.06 847 25.01 7.7 45.9 44 -3.7 25.4
11:10 1018 30.06 847 25.01 7.9 46.1 45 -3.4 25.8
11:15 1018 30.06 847 25.01 7.7 45.8 45 -3.6 25.5
11:20 1018 30.06 847 25.01 7.8 46 45 -3.5 25.6
11:25 1018 30.06 847 25.01 8.1 46.6 44 -3.4 25.9
11:30 1018 30.06 847 25.01 7.2 44.9 47 -3.4 25.9
11:35 1018 30.06 847 25.01 7.4 45.4 45 -3.8 25.2
11:40 1018 30.06 847 25.01 8.7 47.6 40 -4 24.8
11:45 1018 30.06 847 25.01 9.2 48.5 41 -3.4 25.9
11:50 1018 30.06 847 25.01 8.7 47.6 41 -3.8 25.1
11:55 1018 30.06 847 25.01 9.5 49 39 -3.8 25.1
12:00 1018 30.06 847 25.01 9.5 49.2 42 -2.7 27.1
12:05 1018 30.06 847 25.01 8.5 47.3 45 -2.6 27.2
12:10 1018 30.06 847 25.01 7.1 44.8 48 -3.2 26.3
12:15 1018 30.06 847 25.01 8.3 46.9 42 -3.9 25
12:20 1017 30.03 847 25.01 7.7 45.9 44 -3.7 25.4
12:25 1017 30.03 847 25.01 7.7 45.9 44 -3.7 25.4
12:30 1017 30.03 847 25.01 8.9 48.1 42 -3.4 25.9
12:35 1017 30.03 846 24.98 9.3 48.7 38 -4.2 24.5
12:40 1017 30.03 846 24.98 9.8 49.7 37 -4.1 24.7
12:45 1017 30.03 846 24.98 10.3 50.6 34 -4.7 23.5
12:50 1017 30.03 846 24.98 10.8 51.4 34 -4.5 24
12:55 1017 30.03 846 24.98 10.5 50.9 34 -4.7 23.6
13:00 1017 30.03 846 24.98 10.7 51.2 32 -5.4 22.3
13:05 1017 30.03 846 24.98 11.1 51.9 32 -4.8 23.4
13:10 1017 30.03 846 24.98 11.1 52 31 -5.1 22.8
13:15 1017 30.03 846 24.98 11.2 52.1 32 -4.8 23.4
13:20 1017 30.03 846 24.98 10.8 51.5 32 -5.2 22.7
13:25 1017 30.03 846 24.98 11.2 52.1 32 -5 23
13:30 1016 30 846 24.98 11.5 52.6 31 -5.1 22.8
13:35 1016 30 846 24.98 11.5 52.6 32 -4.7 23.6
13:40 1016 30 846 24.98 10.2 50.3 33 -5.2 22.6
13:45 1016 30 846 24.98 10.8 51.4 32 -5.3 22.5
13:50 1016 30 846 24.98 10.4 50.7 32 -5.7 21.7
13:55 1016 30 846 24.98 10.8 51.4 31 -5.7 21.8
14:00 1016 30 845 24.95 11.4 52.4 31 -5.2 22.7
14:05 1016 30 845 24.95 11.5 52.7 30 -5.5 22
14:10 1016 30 845 24.95 11.4 52.5 30 -5.4 22.3
14:15 1016 30 845 24.95 11.2 52.1 31 -5.3 22.5
14:20 1016 30 845 24.95 11.2 52.2 31 -5.3 22.5
14:25 1016 30 845 24.95 11.5 52.8 30 -5.4 22.3
14:30 1016 30 845 24.95 10.7 51.3 33 -5.1 22.9
14:35 1016 30 845 24.95 10.4 50.8 32 -5.4 22.2
14:40 1016 30 845 24.95 10.4 50.7 33 -5 22.9
14:45 1016 30 845 24.95 10.1 50.2 33 -5.3 22.5
14:50 1016 30 845 24.95 10.2 50.3 33 -5.4 22.3
14:55 1016 30 845 24.95 10.2 50.3 33 -5.4 22.3
15:00 1016 30 845 24.95 10 50 33 -5.4 22.3
15:05 1016 30 845 24.95 10 49.9 33 -5.5 22.2
15:10 1016 30 845 24.95 9.4 49 34 -5.6 21.9
15:15 1015 29.97 845 24.95 9.1 48.4 34 -5.8 21.6
15:20 1015 29.97 845 24.95 9 48.3 34 -5.8 21.5
15:25 1015 29.97 845 24.95 9 48.2 34 -5.9 21.5
15:30 1015 29.97 845 24.95 9.1 48.4 34 -5.9 21.4
15:35 1015 29.97 845 24.95 9.2 48.6 35 -5.6 21.9
15:40 1015 29.97 845 24.95 9.3 48.7 35 -5.5 22.1
15:45 1015 29.97 845 24.95 9.2 48.5 35 -5.4 22.3
15:50 1015 29.97 845 24.95 8.9 47.9 37 -5.1 22.8
15:55 1015 29.97 845 24.95 8.5 47.2 39 -4.6 23.6
16:00 1015 29.97 845 24.95 8.1 46.5 40 -4.6 23.8
16:05 1015 29.97 845 24.95 7.9 46.3 40 -4.7 23.5
16:10 1015 29.97 845 24.95 7.7 45.9 41 -4.8 23.4
16:15 1015 29.97 845 24.95 7.6 45.8 40 -5 22.9
16:20 1015 29.97 845 24.95 7.8 46 40 -5.1 22.8
16:25 1015 29.97 845 24.95 7.8 46.1 39 -5.4 22.3
16:30 1015 29.97 845 24.95 7.9 46.1 39 -5.3 22.5
16:35 1015 29.97 845 24.95 7.9 46.1 39 -5.4 22.3
16:40 1015 29.97 845 24.95 7.8 46 39 -5.4 22.3
16:45 1015 29.97 845 24.95 7.5 45.5 41 -4.9 23.2
16:50 1015 29.97 845 24.95 7.1 44.8 41 -5.2 22.7
16:55 1015 29.97 844 24.92 7 44.5 40 -5.7 21.7
17:00 1015 29.97 844 24.92 6.9 44.5 40 -5.8 21.6
17:05 1015 29.97 844 24.92 6.9 44.5 40 -5.7 21.7
17:10 1015 29.97 844 24.92 6.9 44.3 40 -5.9 21.4
17:15 1015 29.97 844 24.92 6.8 44.2 40 -5.7 21.7
17:20 1015 29.97 844 24.92 6.7 44 40 -6.1 21.1
17:25 1015 29.97 844 24.92 6.7 44.1 39 -6.2 20.9
17:30 1015 29.97 844 24.92 6.8 44.2 39 -6.2 20.8
17:35 1015 29.97 844 24.92 6.6 43.8 40 -6.2 20.8
17:40 1015 29.97 844 24.92 6.8 44.3 37 -6.8 19.8
17:45 1015 29.97 844 24.92 6.6 43.8 41 -5.8 21.6
17:50 1015 29.97 844 24.92 6 42.8 41 -6.3 20.7
17:55 1015 29.97 844 24.92 5.8 42.5 42 -6.2 20.9
18:00 1015 29.97 844 24.92 5.7 42.3 41 -6.5 20.3
18:05 1015 29.97 844 24.92 5.8 42.4 40 -6.7 20
18:10 1015 29.97 844 24.92 5.8 42.5 40 -6.7 20
18:15 1014 29.94 844 24.92 5.9 42.6 40 -6.9 19.6
18:20 1014 29.94 844 24.92 5.9 42.6 40 -6.8 19.7
18:25 1014 29.94 844 24.92 5.8 42.4 40 -6.9 19.5
18:30 1014 29.94 843 24.89 5.9 42.6 38 -7.3 18.9
18:35 1014 29.94 843 24.89 6.1 42.9 38 -7.2 19
18:40 1014 29.94 843 24.89 6 42.8 37 -7.6 18.3
18:45 1014 29.94 843 24.89 6.1 42.9 37 -7.6 18.3
18:50 1014 29.94 843 24.89 6 42.7 38 -7.4 18.7
18:55 1014 29.94 843 24.89 5.9 42.5 36 -8.2 17.3
19:00 1014 29.94 843 24.89 5.8 42.4 38 -7.6 18.3
19:05 1014 29.94 843 24.89 5.8 42.5 36 -8.3 17.1
19:10 1014 29.94 843 24.89 5.8 42.5 34 -8.9 16.1
19:15 1014 29.94 843 24.89 6.2 43.1 34 -8.7 16.4
19:20 1014 29.94 843 24.89 6.4 43.5 33 -8.7 16.4
19:25 1014 29.94 843 24.89 6.3 43.4 34 -8.5 16.6
19:30 1014 29.94 843 24.89 6.3 43.3 34 -8.6 16.5
19:35 1014 29.94 843 24.89 6.5 43.6 33 -8.8 16.2
19:40 1014 29.94 843 24.89 6.7 44 33 -8.5 16.7
19:45 1014 29.94 843 24.89 6.5 43.7 33 -8.6 16.5
19:50 1014 29.94 843 24.89 6.5 43.7 33 -8.5 16.7
19:55 1014 29.94 843 24.89 6.6 43.8 33 -8.5 16.8
20:00 1014 29.94 843 24.89 6.6 43.8 33 -8.7 16.4
20:05 1013 29.91 843 24.89 6.7 44.1 33 -8.6 16.5
20:10 1013 29.91 843 24.89 7 44.6 31 -8.8 16.1
20:15 1013 29.91 843 24.89 7.2 45 32 -8.4 16.9
20:20 1013 29.91 843 24.89 7 44.6 32 -8.5 16.7
20:25 1013 29.91 843 24.89 7.2 44.9 32 -8.5 16.7
20:30 1013 29.91 843 24.89 7 44.6 33 -8.2 17.2
20:35 1013 29.91 842 24.86 6.8 44.3 33 -8.3 17.1
20:40 1013 29.91 842 24.86 6.8 44.2 34 -8.1 17.3
20:45 1013 29.91 842 24.86 6.9 44.4 33 -8.3 17.1
20:50 1013 29.91 842 24.86 7.1 44.7 33 -8.3 17.1
20:55 1013 29.91 842 24.86 6.9 44.4 34 -7.9 17.8
21:00 1013 29.91 842 24.86 6.6 43.8 35 -7.8 17.9
21:05 1013 29.91 842 24.86 6.5 43.8 34 -8.2 17.2
21:10 1013 29.91 842 24.86 7 44.6 33 -8.2 17.2
21:15 1013 29.91 842 24.86 7.3 45.1 33 -7.8 18
21:20 1013 29.91 842 24.86 7.1 44.7 33 -8 17.6
21:25 1013 29.91 842 24.86 7.1 44.8 34 -7.8 17.9
21:30 1013 29.91 842 24.86 6.9 44.4 34 -7.8 18
21:35 1013 29.91 842 24.86 7.1 44.8 34 -7.9 17.8
21:40 1013 29.91 842 24.86 7.3 45.2 33 -7.8 17.9
21:45 1013 29.91 842 24.86 7.5 45.5 33 -7.9 17.7
21:50 1013 29.91 842 24.86 7.6 45.6 33 -7.8 17.9
21:55 1013 29.91 842 24.86 7.5 45.4 34 -7.5 18.5
22:00 1013 29.91 842 24.86 7.3 45.2 33 -7.7 18.1
22:05 1013 29.91 842 24.86 7.5 45.5 33 -7.6 18.3
22:10 1013 29.91 842 24.86 7.1 44.7 34 -7.7 18.1
22:15 1013 29.91 842 24.86 7.4 45.3 33 -8 17.6
22:20 1013 29.91 842 24.86 7.7 45.9 32 -8 17.6
22:25 1013 29.91 842 24.86 7.6 45.6 33 -7.7 18.2
22:30 1013 29.91 842 24.86 7.2 44.9 33 -7.9 17.8
22:35 1012 29.88 842 24.86 7.2 44.9 33 -7.9 17.7
22:40 1012 29.88 842 24.86 7.2 45 33 -8.1 17.4
22:45 1012 29.88 841 24.83 7.7 45.8 32 -7.9 17.8
22:50 1012 29.88 841 24.83 7.6 45.7 32 -8.2 17.3
22:55 1012 29.88 841 24.83 7.6 45.7 31 -8.4 16.9
23:00 1012 29.88 841 24.83 7.9 46.3 30 -8.7 16.4
23:05 1012 29.88 841 24.83 8 46.3 31 -8.3 17.1
23:10 1012 29.88 841 24.83 7.8 46 31 -8.4 16.9
23:15 1012 29.88 841 24.83 7.5 45.6 32 -8.1 17.5
23:20 1012 29.88 841 24.83 7.2 44.9 31 -8.9 15.9
23:25 1012 29.88 841 24.83 7.7 45.9 29 -9 15.7
23:30 1012 29.88 841 24.83 8.3 46.9 28 -9.1 15.7
23:35 1011 29.85 841 24.83 8.7 47.7 28 -8.7 16.3
23:40 1011 29.85 841 24.83 8.2 46.7 30 -8.4 17
23:45 1011 29.85 841 24.83 7.4 45.4 32 -8 17.6
23:50 1011 29.85 841 24.83 7 44.5 33 -8.4 16.9
23:55 1011 29.85 841 24.83 7 44.5 33 -8.4 16.9
24:00 1011 29.85 840 24.81 7.4 45.3 31 -8.6 16.5